createdAt,value
2023-05-11T00:01:29.102Z,87.30
2023-05-11T00:03:32.816Z,88.28
2023-05-11T00:05:36.309Z,89.05
2023-05-11T00:07:41.223Z,91.56
2023-05-11T00:09:44.699Z,93.01
2023-05-11T00:11:48.060Z,94.14
2023-05-11T00:13:51.512Z,93.75
2023-05-11T00:15:55.080Z,94.29
2023-05-11T00:17:58.544Z,94.64
2023-05-11T00:20:01.970Z,94.80
2023-05-11T00:22:05.356Z,94.59
2023-05-11T00:24:10.426Z,94.58
2023-05-11T00:26:13.796Z,94.13
2023-05-11T00:28:18.900Z,94.16
2023-05-11T00:30:22.860Z,95.24
2023-05-11T00:32:27.374Z,94.83
2023-05-11T00:34:32.211Z,95.27
2023-05-11T00:36:35.633Z,95.04
2023-05-11T00:38:40.830Z,94.97
2023-05-11T00:40:45.675Z,94.56
2023-05-11T00:42:49.109Z,94.02
2023-05-11T00:44:52.476Z,93.99
2023-05-11T00:46:55.986Z,93.14
2023-05-11T00:48:59.694Z,92.37
2023-05-11T00:51:05.458Z,91.24
2023-05-11T00:53:14.456Z,91.11
2023-05-11T00:55:21.316Z,91.57
2023-05-11T00:57:26.530Z,91.63
2023-05-11T00:59:30.045Z,91.35
2023-05-11T01:01:33.461Z,90.97
2023-05-11T01:03:37.252Z,90.58
2023-05-11T01:05:45.314Z,90.27
2023-05-11T01:07:59.348Z,90.30
2023-05-11T01:10:09.920Z,90.21
2023-05-11T01:12:19.812Z,89.74
2023-05-11T01:14:31.926Z,89.71
2023-05-11T01:16:41.434Z,89.56
2023-05-11T01:18:52.117Z,89.59
2023-05-11T01:21:00.980Z,89.61
2023-05-11T01:23:25.969Z,89.65
2023-05-11T01:25:44.801Z,89.95
2023-05-11T01:28:11.667Z,90.00
2023-05-11T01:30:37.699Z,90.36
2023-05-11T01:32:43.854Z,90.27
2023-05-11T01:34:48.272Z,90.28
2023-05-11T01:36:55.886Z,90.74
2023-05-11T01:39:03.756Z,90.43
2023-05-11T01:41:13.224Z,90.51
2023-05-11T01:43:22.214Z,90.55
2023-05-11T01:45:29.105Z,90.87
2023-05-11T01:47:35.223Z,90.75
2023-05-11T01:49:41.882Z,90.70
2023-05-11T01:51:49.555Z,90.87
2023-05-11T01:53:55.605Z,90.45
2023-05-11T01:56:00.591Z,90.87
2023-05-11T01:58:06.708Z,90.87
2023-05-11T02:00:10.944Z,90.84
2023-05-11T02:02:20.152Z,90.95
2023-05-11T02:04:26.575Z,91.03
2023-05-11T02:06:32.584Z,91.15
2023-05-11T02:08:37.226Z,90.90
2023-05-11T02:10:42.854Z,90.93
2023-05-11T02:12:47.287Z,90.95
2023-05-11T02:14:53.614Z,90.88
2023-05-11T02:16:58.894Z,91.38
2023-05-11T02:19:02.707Z,91.44
2023-05-11T02:21:10.088Z,91.56
2023-05-11T02:23:15.781Z,91.48
2023-05-11T02:25:20.686Z,91.69
2023-05-11T02:27:25.781Z,91.81
2023-05-11T02:29:30.390Z,91.80
2023-05-11T02:31:41.396Z,92.02
2023-05-11T02:33:52.109Z,92.53
2023-05-11T02:35:57.794Z,93.81
2023-05-11T02:38:06.828Z,94.40
2023-05-11T02:40:17.118Z,94.37
2023-05-11T02:42:24.440Z,94.39
2023-05-11T02:44:33.438Z,94.57
2023-05-11T02:46:39.607Z,94.90
2023-05-11T02:48:48.082Z,95.49
2023-05-11T02:50:55.016Z,96.59
2023-05-11T02:53:04.768Z,97.18
2023-05-11T02:55:11.897Z,97.01
2023-05-11T02:57:15.525Z,96.79
2023-05-11T02:59:19.691Z,96.51
2023-05-11T03:01:23.470Z,96.58
2023-05-11T03:03:27.931Z,96.69
2023-05-11T03:05:31.481Z,96.42
2023-05-11T03:07:35.165Z,95.81
2023-05-11T03:09:39.039Z,96.03
2023-05-11T03:11:45.383Z,95.95
2023-05-11T03:13:50.126Z,95.81
2023-05-11T03:15:56.462Z,95.75
2023-05-11T03:18:01.128Z,95.56
2023-05-11T03:20:07.375Z,95.57
2023-05-11T03:22:11.779Z,95.33
2023-05-11T03:24:15.657Z,95.17
2023-05-11T03:26:21.315Z,95.26
2023-05-11T03:28:27.889Z,95.00
2023-05-11T03:30:38.554Z,94.74
2023-05-11T03:32:42.261Z,94.54
2023-05-11T03:34:45.924Z,94.28
2023-05-11T03:36:52.090Z,94.21
2023-05-11T03:38:58.814Z,94.04
2023-05-11T03:41:07.615Z,93.83
2023-05-11T03:43:17.677Z,93.42
2023-05-11T03:45:27.194Z,93.51
2023-05-11T03:47:32.385Z,93.30
2023-05-11T03:49:38.055Z,93.33
2023-05-11T03:51:42.416Z,93.35
2023-05-11T03:53:46.304Z,93.59
2023-05-11T03:55:50.134Z,93.85
2023-05-11T03:57:53.716Z,93.57
2023-05-11T03:59:58.110Z,93.83
2023-05-11T04:02:04.082Z,93.65
2023-05-11T04:04:07.588Z,93.81
2023-05-11T04:06:11.268Z,93.89
2023-05-11T04:08:15.345Z,93.54
2023-05-11T04:10:19.017Z,93.33
2023-05-11T04:12:22.655Z,93.42
2023-05-11T04:14:28.509Z,93.12
2023-05-11T04:16:35.919Z,92.50
2023-05-11T04:18:41.428Z,91.88
2023-05-11T04:20:49.549Z,92.99
2023-05-11T04:22:52.918Z,94.18
2023-05-11T04:24:56.489Z,94.08
2023-05-11T04:27:00.052Z,94.14
2023-05-11T04:29:03.808Z,93.86
2023-05-11T04:31:07.511Z,93.78
2023-05-11T04:33:12.092Z,93.40
2023-05-11T04:35:17.088Z,93.03
2023-05-11T04:37:20.718Z,93.12
2023-05-11T04:39:24.215Z,93.11
2023-05-11T04:41:27.634Z,93.13
2023-05-11T04:43:34.966Z,92.99
2023-05-11T04:45:38.515Z,93.03
2023-05-11T04:47:42.133Z,92.95
2023-05-11T04:49:46.694Z,92.79
2023-05-11T04:51:52.277Z,92.78
2023-05-11T04:53:55.725Z,92.64
2023-05-11T04:55:59.477Z,92.75
2023-05-11T04:58:03.285Z,92.66
2023-05-11T05:00:08.831Z,92.41
2023-05-11T05:02:12.964Z,92.94
2023-05-11T05:04:16.797Z,92.72
2023-05-11T05:06:20.335Z,92.40
2023-05-11T05:08:25.133Z,92.85
2023-05-11T05:10:28.713Z,92.77
2023-05-11T05:12:32.246Z,92.77
2023-05-11T05:14:35.814Z,92.80
2023-05-11T05:16:39.381Z,92.59
2023-05-11T05:18:43.114Z,92.55
2023-05-11T05:20:46.949Z,92.38
2023-05-11T05:22:50.401Z,92.46
2023-05-11T05:24:55.506Z,92.31
2023-05-11T05:26:59.603Z,91.84
2023-05-11T05:29:03.684Z,92.26
2023-05-11T05:31:07.416Z,92.21
2023-05-11T05:33:10.944Z,92.41
2023-05-11T05:35:14.617Z,92.23
2023-05-11T05:37:19.596Z,92.07
2023-05-11T05:39:23.688Z,91.82
2023-05-11T05:41:28.629Z,91.90
2023-05-11T05:43:32.089Z,94.00
2023-05-11T05:45:35.607Z,93.45
2023-05-11T05:47:40.491Z,92.79
2023-05-11T05:49:44.112Z,91.86
2023-05-11T05:51:48.075Z,91.14
2023-05-11T05:53:51.655Z,91.12
2023-05-11T05:55:55.099Z,90.78
2023-05-11T05:57:59.953Z,91.02
2023-05-11T06:00:03.887Z,90.88
2023-05-11T06:02:16.242Z,90.75
2023-05-11T06:04:20.011Z,90.75
2023-05-11T06:06:24.643Z,90.92
2023-05-11T06:08:28.362Z,91.21
2023-05-11T06:10:31.856Z,91.36
2023-05-11T06:12:35.353Z,91.29
2023-05-11T06:14:41.581Z,91.12
2023-05-11T06:16:45.418Z,90.61
2023-05-11T06:18:49.144Z,90.61
2023-05-11T06:20:52.673Z,90.23
2023-05-11T06:22:56.127Z,90.16
2023-05-11T06:24:59.648Z,89.94
2023-05-11T06:27:04.111Z,89.76
2023-05-11T06:29:09.606Z,89.93
2023-05-11T06:31:15.000Z,89.62
2023-05-11T06:33:20.009Z,89.53
2023-05-11T06:35:23.797Z,89.73
2023-05-11T06:37:30.446Z,89.08
2023-05-11T06:39:37.491Z,89.31
2023-05-11T06:41:44.460Z,89.17
2023-05-11T06:43:48.027Z,88.88
2023-05-11T06:45:57.487Z,88.94
2023-05-11T06:48:03.459Z,88.81
2023-05-11T06:50:07.652Z,88.88
2023-05-11T06:52:14.319Z,88.54
2023-05-11T06:54:18.060Z,88.82
2023-05-11T06:56:21.821Z,88.68
2023-05-11T06:58:25.306Z,88.73
2023-05-11T07:00:28.970Z,88.57
2023-05-11T07:02:32.479Z,88.35
2023-05-11T07:04:37.536Z,87.88
2023-05-11T07:06:41.023Z,87.66
2023-05-11T07:08:44.419Z,87.52
2023-05-11T07:10:47.823Z,87.78
2023-05-11T07:12:51.297Z,87.25
2023-05-11T07:14:54.862Z,87.11
2023-05-11T07:16:58.334Z,86.63
2023-05-11T07:19:01.786Z,85.99
2023-05-11T07:21:06.700Z,85.98
2023-05-11T07:23:10.235Z,85.42
2023-05-11T07:25:13.709Z,85.16
2023-05-11T07:27:17.353Z,85.29
2023-05-11T07:29:21.036Z,84.91
2023-05-11T07:31:24.588Z,84.22
2023-05-11T07:33:28.198Z,83.72
2023-05-11T07:35:31.593Z,84.37
2023-05-11T07:37:36.374Z,84.74
2023-05-11T07:39:40.078Z,84.55
2023-05-11T07:41:43.481Z,84.53
2023-05-11T07:43:46.859Z,84.89
2023-05-11T07:45:50.316Z,84.92
2023-05-11T07:47:53.899Z,84.63
2023-05-11T07:49:57.365Z,84.00
2023-05-11T07:52:00.802Z,83.49
2023-05-11T07:54:05.850Z,83.16
2023-05-11T07:56:10.810Z,82.93
2023-05-11T07:58:14.231Z,82.66
2023-05-11T08:00:18.210Z,83.49
2023-05-11T08:02:21.845Z,83.60
2023-05-11T08:04:25.621Z,83.41
2023-05-11T08:06:29.045Z,83.36
2023-05-11T08:08:32.575Z,84.45
2023-05-11T08:10:38.033Z,84.52
2023-05-11T08:12:41.757Z,84.45
2023-05-11T08:14:45.312Z,83.83
2023-05-11T08:16:49.669Z,83.56
2023-05-11T08:18:53.246Z,82.40
2023-05-11T08:20:57.114Z,81.82
2023-05-11T08:23:00.706Z,81.15
2023-05-11T08:25:05.588Z,80.63
2023-05-11T08:27:10.457Z,79.16
2023-05-11T08:29:13.953Z,79.45
2023-05-11T08:31:18.550Z,79.13
2023-05-11T08:33:36.543Z,79.25
2023-05-11T08:35:41.427Z,79.14
2023-05-11T08:37:44.933Z,78.87
2023-05-11T08:39:48.343Z,78.89
2023-05-11T08:41:52.325Z,78.98
2023-05-11T08:43:58.852Z,79.24
2023-05-11T08:46:07.301Z,79.50
2023-05-11T08:48:11.604Z,79.62
2023-05-11T08:50:15.242Z,78.92
2023-05-11T08:52:19.909Z,79.82
2023-05-11T08:54:23.346Z,79.00
2023-05-11T08:56:27.708Z,78.74
2023-05-11T08:58:33.070Z,78.63
2023-05-11T09:00:38.729Z,78.40
2023-05-11T09:02:43.112Z,78.17
2023-05-11T09:04:48.784Z,77.41
2023-05-11T09:06:53.219Z,77.34
2023-05-11T09:08:56.701Z,77.15
2023-05-11T09:11:00.969Z,77.12
2023-05-11T09:13:04.715Z,76.50
2023-05-11T09:15:09.615Z,76.47
2023-05-11T09:17:14.540Z,76.33
2023-05-11T09:19:18.186Z,76.83
2023-05-11T09:21:21.819Z,76.87
2023-05-11T09:23:27.507Z,76.10
2023-05-11T09:25:35.079Z,75.47
2023-05-11T09:27:42.482Z,75.68
2023-05-11T09:29:51.986Z,76.39
2023-05-11T09:31:56.057Z,76.36
2023-05-11T09:34:15.096Z,76.34
2023-05-11T09:36:24.605Z,74.61
2023-05-11T09:38:28.116Z,73.75
2023-05-11T09:40:33.863Z,73.97
2023-05-11T09:42:38.196Z,73.89
2023-05-11T09:44:42.465Z,73.55
2023-05-11T09:46:47.481Z,73.04
2023-05-11T09:48:59.659Z,72.35
2023-05-11T09:51:06.305Z,72.49
2023-05-11T09:53:09.977Z,71.63
2023-05-11T09:55:13.386Z,70.99
2023-05-11T09:57:27.539Z,71.38
2023-05-11T09:59:41.206Z,71.44
2023-05-11T10:01:44.779Z,71.99
2023-05-11T10:03:49.659Z,72.03
2023-05-11T10:06:00.507Z,71.73
2023-05-11T10:08:06.773Z,71.58
2023-05-11T10:10:11.664Z,71.99
2023-05-11T10:12:15.510Z,71.99
2023-05-11T10:14:20.293Z,71.54
2023-05-11T10:16:23.954Z,72.02
2023-05-11T10:18:27.637Z,71.71
2023-05-11T10:20:31.208Z,71.50
2023-05-11T10:22:35.055Z,71.03
2023-05-11T10:24:40.597Z,71.08
2023-05-11T10:26:44.484Z,71.39
2023-05-11T10:28:47.984Z,70.32
2023-05-11T10:30:53.304Z,69.75
2023-05-11T10:32:57.501Z,70.15
2023-05-11T10:35:01.131Z,70.01
2023-05-11T10:37:05.867Z,70.17
2023-05-11T10:39:09.366Z,70.38
2023-05-11T10:41:27.124Z,70.47
2023-05-11T10:43:51.617Z,70.66
2023-05-11T10:46:08.741Z,70.30
2023-05-11T10:48:37.764Z,70.58
2023-05-11T10:50:51.865Z,71.35
2023-05-11T10:53:35.340Z,72.76
2023-05-11T10:55:58.233Z,72.98
2023-05-11T10:58:09.522Z,73.22
2023-05-11T11:01:03.943Z,73.89
2023-05-11T11:03:12.445Z,74.40
2023-05-11T11:05:33.196Z,74.42
2023-05-11T11:07:58.584Z,74.10
2023-05-11T11:10:06.228Z,73.70
2023-05-11T11:12:11.175Z,73.18
2023-05-11T11:14:17.221Z,72.79
2023-05-11T11:16:23.573Z,72.38
2023-05-11T11:18:28.252Z,71.73
2023-05-11T11:20:48.678Z,72.77
2023-05-11T11:22:52.094Z,71.65
2023-05-11T11:24:55.615Z,72.29
2023-05-11T11:26:59.006Z,72.80
2023-05-11T11:29:12.845Z,72.39
2023-05-11T11:31:28.929Z,71.92
2023-05-11T11:33:34.585Z,71.51
2023-05-11T11:35:48.606Z,70.97
2023-05-11T11:38:02.967Z,71.42
2023-05-11T11:40:14.528Z,71.51
2023-05-11T11:42:33.193Z,71.61
2023-05-11T11:44:37.298Z,71.37
2023-05-11T11:46:42.402Z,69.97
2023-05-11T11:48:46.574Z,68.91
2023-05-11T11:51:01.325Z,69.05
2023-05-11T11:53:05.465Z,68.58
2023-05-11T11:55:09.163Z,68.09
2023-05-11T11:57:46.682Z,68.53
2023-05-11T11:59:50.220Z,68.55
2023-05-11T12:01:56.616Z,68.00
2023-05-11T12:04:18.814Z,67.52
2023-05-11T12:06:25.007Z,67.89
2023-05-11T12:08:31.182Z,67.66
2023-05-11T12:10:34.961Z,67.52
2023-05-11T12:12:39.405Z,67.06
2023-05-11T12:14:48.834Z,65.91
2023-05-11T12:17:13.322Z,65.82
2023-05-11T12:19:25.277Z,65.59
2023-05-11T12:21:29.926Z,65.18
2023-05-11T12:23:33.417Z,65.40
2023-05-11T12:25:36.799Z,66.39
2023-05-11T12:27:49.867Z,66.29
2023-05-11T12:29:53.362Z,66.58
2023-05-11T12:31:56.846Z,66.41
2023-05-11T12:34:01.746Z,65.52
2023-05-11T12:36:05.648Z,65.28
2023-05-11T12:38:12.275Z,65.24
2023-05-11T12:40:15.663Z,64.92
2023-05-11T12:42:20.131Z,64.53
2023-05-11T12:44:25.474Z,64.94
2023-05-11T12:46:29.241Z,64.38
2023-05-11T12:48:33.079Z,63.95
2023-05-11T12:50:42.705Z,62.81
2023-05-11T12:52:46.496Z,63.09
2023-05-11T12:54:52.436Z,63.71
2023-05-11T12:56:56.050Z,63.81
2023-05-11T12:58:59.545Z,64.15
2023-05-11T13:01:03.111Z,64.23
2023-05-11T13:03:07.761Z,64.83
2023-05-11T13:05:12.384Z,64.54
2023-05-11T13:07:28.717Z,64.83
2023-05-11T13:09:32.246Z,65.95
2023-05-11T13:11:35.718Z,66.18
2023-05-11T13:13:39.175Z,65.64
2023-05-11T13:15:52.250Z,65.95
2023-05-11T13:18:00.184Z,66.46
2023-05-11T13:20:17.246Z,66.97
2023-05-11T13:22:22.110Z,67.73
2023-05-11T13:24:27.002Z,68.05
2023-05-11T13:26:32.770Z,68.86
2023-05-11T13:28:36.236Z,68.96
2023-05-11T13:30:39.682Z,69.51
2023-05-11T13:32:43.166Z,69.17
2023-05-11T13:34:46.601Z,68.38
2023-05-11T13:36:50.731Z,69.64
2023-05-11T13:38:55.582Z,69.59
2023-05-11T13:40:59.147Z,69.28
2023-05-11T13:43:03.103Z,69.17
2023-05-11T13:45:08.098Z,69.57
2023-05-11T13:47:12.639Z,70.59
2023-05-11T13:49:16.125Z,70.72
2023-05-11T13:51:19.510Z,69.76
2023-05-11T13:53:22.994Z,69.99
2023-05-11T13:55:29.513Z,69.32
2023-05-11T13:57:33.045Z,68.44
2023-05-11T13:59:36.501Z,66.96
2023-05-11T14:01:40.091Z,66.65
2023-05-11T14:03:43.633Z,66.81
2023-05-11T14:05:49.554Z,66.58
2023-05-11T14:07:53.293Z,66.65
2023-05-11T14:09:56.780Z,66.51
2023-05-11T14:12:01.829Z,66.74
2023-05-11T14:14:05.390Z,67.38
2023-05-11T14:16:09.997Z,68.45
2023-05-11T14:18:13.563Z,68.78
2023-05-11T14:20:17.112Z,68.88
2023-05-11T14:22:20.540Z,69.06
2023-05-11T14:24:24.006Z,68.93
2023-05-11T14:26:27.565Z,68.75
2023-05-11T14:28:32.502Z,68.35
2023-05-11T14:30:36.118Z,68.36
2023-05-11T14:32:39.674Z,68.35
2023-05-11T14:34:43.396Z,67.90
2023-05-11T14:36:46.876Z,67.51
2023-05-11T14:38:50.348Z,66.80
2023-05-11T14:40:53.827Z,66.64
2023-05-11T14:42:57.266Z,66.01
2023-05-11T14:45:02.082Z,65.61
2023-05-11T14:47:06.351Z,65.35
2023-05-11T14:49:09.825Z,65.48
2023-05-11T14:51:13.318Z,65.65
2023-05-11T14:53:16.784Z,66.45
2023-05-11T14:55:20.585Z,66.80
2023-05-11T14:57:24.245Z,67.41
2023-05-11T14:59:28.103Z,66.85
2023-05-11T15:01:32.959Z,66.62
2023-05-11T15:03:37.505Z,66.78
2023-05-11T15:05:41.864Z,66.52
2023-05-11T15:07:45.400Z,66.61
2023-05-11T15:09:49.765Z,66.47
2023-05-11T15:11:53.145Z,66.25
2023-05-11T15:13:56.554Z,66.38
2023-05-11T15:16:00.124Z,66.60
2023-05-11T15:18:05.282Z,66.05
2023-05-11T15:20:10.175Z,66.39
2023-05-11T15:22:13.582Z,66.31
2023-05-11T15:24:16.952Z,66.36
2023-05-11T15:26:21.524Z,66.20
2023-05-11T15:28:24.982Z,66.04
2023-05-11T15:30:29.481Z,66.22
2023-05-11T15:32:34.505Z,66.55
2023-05-11T15:34:50.892Z,67.17
2023-05-11T15:37:01.814Z,67.17
2023-05-11T15:39:05.343Z,66.90
2023-05-11T15:41:08.960Z,67.42
2023-05-11T15:43:12.660Z,68.26
2023-05-11T15:45:16.486Z,69.03
2023-05-11T15:47:20.503Z,70.16
2023-05-11T15:49:24.070Z,70.77
2023-05-11T15:51:29.162Z,71.89
2023-05-11T15:53:32.621Z,72.97
2023-05-11T15:55:36.942Z,74.13
2023-05-11T15:57:40.407Z,75.00
2023-05-11T15:59:43.863Z,75.75
2023-05-11T16:01:47.316Z,76.55
2023-05-11T16:03:50.980Z,77.44
2023-05-11T16:05:54.413Z,78.19
2023-05-11T16:07:59.607Z,78.90
2023-05-11T16:10:03.031Z,79.95
2023-05-11T16:12:07.045Z,80.23
2023-05-11T16:14:10.580Z,80.93
2023-05-11T16:16:14.145Z,81.54
2023-05-11T16:18:19.615Z,82.79
2023-05-11T16:20:23.289Z,83.36
2023-05-11T16:22:26.826Z,83.97
2023-05-11T16:24:34.358Z,84.42
2023-05-11T16:26:38.287Z,84.47
2023-05-11T16:28:42.702Z,84.74
2023-05-11T16:30:46.322Z,84.99
2023-05-11T16:32:51.526Z,85.22
2023-05-11T16:34:55.059Z,85.21
2023-05-11T16:36:59.292Z,85.43
2023-05-11T16:39:03.197Z,85.78
2023-05-11T16:41:08.345Z,85.95
2023-05-11T16:43:11.813Z,86.46
2023-05-11T16:45:16.403Z,86.28
2023-05-11T16:47:20.095Z,86.54
2023-05-11T16:49:23.980Z,86.87
2023-05-11T16:51:27.456Z,87.46
2023-05-11T16:53:31.807Z,87.54
2023-05-11T16:55:35.282Z,87.75
2023-05-11T16:57:40.150Z,88.46
2023-05-11T16:59:43.549Z,88.30
2023-05-11T17:01:47.044Z,88.29
2023-05-11T17:03:50.640Z,88.46
2023-05-11T17:05:54.422Z,88.78
2023-05-11T17:07:58.028Z,88.77
2023-05-11T17:10:01.747Z,89.07
2023-05-11T17:12:08.573Z,89.29
2023-05-11T17:14:14.726Z,89.25
2023-05-11T17:16:18.226Z,88.91
2023-05-11T17:18:21.707Z,89.18
2023-05-11T17:20:25.354Z,88.95
2023-05-11T17:22:29.700Z,88.57
2023-05-11T17:24:33.121Z,88.51
2023-05-11T17:26:47.110Z,88.61
2023-05-11T17:28:51.901Z,88.39
2023-05-11T17:30:56.765Z,88.66
2023-05-11T17:33:00.598Z,88.61
2023-05-11T17:35:04.580Z,88.73
2023-05-11T17:37:14.840Z,88.78
2023-05-11T17:39:23.893Z,88.52
2023-05-11T17:41:27.329Z,88.99
2023-05-11T17:43:30.997Z,88.92
2023-05-11T17:45:34.507Z,88.94
2023-05-11T17:47:39.460Z,88.72
2023-05-11T17:49:43.058Z,88.75
2023-05-11T17:51:47.930Z,88.53
2023-05-11T17:53:51.416Z,88.92
2023-05-11T17:55:54.860Z,89.05
2023-05-11T17:57:58.321Z,89.52
2023-05-11T18:00:01.800Z,89.41
2023-05-11T18:02:05.570Z,89.08
2023-05-11T18:04:10.602Z,89.18
2023-05-11T18:06:14.638Z,89.11
2023-05-11T18:08:18.120Z,89.17
2023-05-11T18:10:21.706Z,88.97
2023-05-11T18:12:25.264Z,89.16
2023-05-11T18:14:28.810Z,89.19
2023-05-11T18:16:32.291Z,89.51
2023-05-11T18:18:36.117Z,89.32
2023-05-11T18:20:42.300Z,89.42
2023-05-11T18:22:45.885Z,89.53
2023-05-11T18:24:49.423Z,89.44
2023-05-11T18:26:53.088Z,89.49
2023-05-11T18:28:56.654Z,89.59
2023-05-11T18:31:00.261Z,89.77
2023-05-11T18:33:03.985Z,89.66
2023-05-11T18:35:07.806Z,89.70
2023-05-11T18:37:12.624Z,89.56
2023-05-11T18:39:16.044Z,89.55
2023-05-11T18:41:19.558Z,89.74
2023-05-11T18:43:23.106Z,89.75
2023-05-11T18:45:30.092Z,89.77
2023-05-11T18:47:34.844Z,89.69
2023-05-11T18:49:39.030Z,89.80
2023-05-11T18:51:42.516Z,90.20
2023-05-11T18:53:47.443Z,90.10
2023-05-11T18:55:53.622Z,90.09
2023-05-11T18:57:58.264Z,90.13
2023-05-11T19:00:03.812Z,90.19
2023-05-11T19:02:07.748Z,90.32
2023-05-11T19:04:11.354Z,90.37
2023-05-11T19:06:14.781Z,90.59
2023-05-11T19:08:18.611Z,90.90
2023-05-11T19:10:24.530Z,90.87
2023-05-11T19:12:27.928Z,91.08
2023-05-11T19:14:34.677Z,91.21
2023-05-11T19:16:38.306Z,91.32
2023-05-11T19:18:41.802Z,92.31
2023-05-11T19:20:45.377Z,92.06
2023-05-11T19:22:48.905Z,91.52
2023-05-11T19:24:52.366Z,91.68
2023-05-11T19:27:06.735Z,91.68
2023-05-11T19:29:14.041Z,91.69
2023-05-11T19:31:17.568Z,91.75
2023-05-11T19:33:21.109Z,91.63
2023-05-11T19:35:24.831Z,93.01
2023-05-11T19:37:28.437Z,92.81
2023-05-11T19:39:31.965Z,93.24
2023-05-11T19:41:35.530Z,92.98
2023-05-11T19:43:40.331Z,92.92
2023-05-11T19:45:45.453Z,93.17
2023-05-11T19:47:49.235Z,92.21
2023-05-11T19:49:52.924Z,91.99
2023-05-11T19:51:57.383Z,91.90
2023-05-11T19:54:00.825Z,91.85
2023-05-11T19:56:04.310Z,91.86
2023-05-11T19:58:07.931Z,92.01
2023-05-11T20:00:13.568Z,92.02
2023-05-11T20:02:17.013Z,92.02
2023-05-11T20:04:20.407Z,92.08
2023-05-11T20:06:23.891Z,92.30
2023-05-11T20:08:27.282Z,92.58
2023-05-11T20:10:30.775Z,92.93
2023-05-11T20:12:34.262Z,92.99
2023-05-11T20:14:40.859Z,92.88
2023-05-11T20:16:45.889Z,92.97
2023-05-11T20:18:49.560Z,93.29
2023-05-11T20:20:53.034Z,93.37
2023-05-11T20:22:56.673Z,93.35
2023-05-11T20:25:00.163Z,93.33
2023-05-11T20:27:09.285Z,93.35
2023-05-11T20:29:13.881Z,93.56
2023-05-11T20:31:17.328Z,93.67
2023-05-11T20:35:28.400Z,93.72
2023-05-11T20:37:31.865Z,93.81
2023-05-11T20:39:36.312Z,93.66
2023-05-11T20:41:39.807Z,93.78
2023-05-11T20:43:43.264Z,93.92
2023-05-11T20:45:46.786Z,93.92
2023-05-11T20:47:50.360Z,94.09
2023-05-11T20:49:55.230Z,94.44
2023-05-11T20:51:58.749Z,94.90
2023-05-11T20:54:02.259Z,94.82
2023-05-11T20:56:05.747Z,94.58
2023-05-11T20:58:09.387Z,94.35
2023-05-11T21:00:15.902Z,94.32
2023-05-11T21:02:19.407Z,94.16
2023-05-11T21:04:22.852Z,94.02
2023-05-11T21:06:27.661Z,93.45
2023-05-11T21:08:31.140Z,93.40
2023-05-11T21:10:34.589Z,93.30
2023-05-11T21:12:38.092Z,92.98
2023-05-11T21:14:42.021Z,92.36
2023-05-11T21:16:45.603Z,92.27
2023-05-11T21:18:49.218Z,92.18
2023-05-11T21:20:52.654Z,92.07
2023-05-11T21:22:58.100Z,92.08
2023-05-11T21:25:01.769Z,92.22
2023-05-11T21:27:05.494Z,92.28
2023-05-11T21:29:09.012Z,92.23
2023-05-11T21:31:12.609Z,92.34
2023-05-11T21:33:16.138Z,92.23
2023-05-11T21:35:19.638Z,92.46
2023-05-11T21:37:23.051Z,92.67
2023-05-11T21:39:27.831Z,92.80
2023-05-11T21:41:31.272Z,92.73
2023-05-11T21:43:34.667Z,92.97
2023-05-11T21:45:38.056Z,93.05
2023-05-11T21:47:42.090Z,93.11
2023-05-11T21:49:45.591Z,93.32
2023-05-11T21:51:50.128Z,93.39
2023-05-11T21:53:53.497Z,93.67
2023-05-11T21:55:58.328Z,93.82
2023-05-11T21:58:02.645Z,93.90
2023-05-11T22:00:09.146Z,94.10
2023-05-11T22:02:12.972Z,94.39
2023-05-11T22:04:16.518Z,93.89
2023-05-11T22:06:20.042Z,94.24
2023-05-11T22:08:23.525Z,94.23
2023-05-11T22:10:26.952Z,94.60
2023-05-11T22:12:31.812Z,94.41
2023-05-11T22:14:35.263Z,94.85
2023-05-11T22:16:38.744Z,94.87
2023-05-11T22:18:42.265Z,95.35
2023-05-11T22:20:45.744Z,95.32
2023-05-11T22:22:49.166Z,95.48
2023-05-11T22:24:53.442Z,95.59
2023-05-11T22:26:57.188Z,95.60
2023-05-11T22:29:01.975Z,96.00
2023-05-11T22:31:05.526Z,95.89
2023-05-11T22:33:08.926Z,95.92
2023-05-11T22:35:12.456Z,96.15
2023-05-11T22:37:15.979Z,96.07
2023-05-11T22:39:19.518Z,96.16
2023-05-11T22:41:22.994Z,96.31
2023-05-11T22:43:26.465Z,96.50
2023-05-11T22:45:31.308Z,96.47
2023-05-11T22:47:34.825Z,96.35
2023-05-11T22:49:38.262Z,96.45
2023-05-11T22:51:41.850Z,96.52
2023-05-11T22:53:46.065Z,96.52
2023-05-11T22:55:49.448Z,96.36
2023-05-11T22:57:53.329Z,96.65
2023-05-11T22:59:57.087Z,96.57
2023-05-11T23:02:03.317Z,96.69
2023-05-11T23:04:07.437Z,96.76
2023-05-11T23:06:12.319Z,96.54
2023-05-11T23:08:15.935Z,96.93
2023-05-11T23:10:19.652Z,96.56
2023-05-11T23:12:23.536Z,96.71
2023-05-11T23:14:27.080Z,97.03
2023-05-11T23:16:30.520Z,96.74
2023-05-11T23:18:35.535Z,96.89
2023-05-11T23:20:39.321Z,96.90
2023-05-11T23:22:42.784Z,96.87
2023-05-11T23:24:46.343Z,96.79
2023-05-11T23:26:49.840Z,96.63
2023-05-11T23:28:53.221Z,96.66
2023-05-11T23:30:56.774Z,96.83
2023-05-11T23:33:00.390Z,96.95
2023-05-11T23:35:05.739Z,96.98
2023-05-11T23:37:09.448Z,97.27
2023-05-11T23:39:12.970Z,97.14
2023-05-11T23:41:16.557Z,97.00
2023-05-11T23:43:20.035Z,97.05
2023-05-11T23:45:23.518Z,97.03
2023-05-11T23:47:28.202Z,97.25
2023-05-11T23:49:31.779Z,97.36
2023-05-11T23:51:36.501Z,97.40
2023-05-11T23:53:39.996Z,97.38
2023-05-11T23:55:43.632Z,97.52
2023-05-11T23:57:47.123Z,97.45
2023-05-11T23:59:50.735Z,97.54
